Terminal Aerodrome Forecast
Issued by NWS Portland, ME

Home | Current Version | Previous Version | Text Only | Print | Product List | Glossary On
Versions: 1 2 3 4 5 6 7 8 9 10 11 12 13 14 15 16
000
FTUS41 KGYX 261731
TAFPWM
TAF
KPWM 261731Z 2618/2718 19011G17KT P6SM OVC120
     FM262000 19008KT 5SM -SHRA BKN030 OVC080
     FM262300 03007KT 2SM -RA BR OVC004
     FM270700 34005KT P6SM -RA OVC025
     FM271100 32007KT 5SM -SHSN BKN035
     FM271600 32007KT P6SM BKN045=

USA.gov is the U.S. government's official web portal to all federal, state and local government web resources and services.